createdAt,value
2014-07-02T05:19:36.003Z,23.6
2014-07-02T05:19:54.222Z,23.6
2014-07-02T05:20:11.197Z,23.6
2014-07-02T13:34:45.323Z,23
2014-07-02T13:35:03.575Z,23.5
2014-07-02T13:35:21.950Z,23.6
2014-07-02T13:35:38.934Z,23.7
2014-07-02T13:35:57.309Z,23.7
2014-07-02T13:36:14.294Z,23.6
2014-07-02T13:36:31.279Z,23.5
2014-07-02T13:36:49.513Z,23.4
2014-07-02T13:37:07.124Z,23.3
2014-07-02T13:37:24.109Z,23.2
2014-07-02T13:37:42.484Z,23.1
2014-07-02T13:38:00.718Z,23.1
2014-07-02T13:38:48.705Z,22.9
2014-07-02T13:39:06.300Z,22.9
2014-07-02T13:39:24.050Z,22.9
2014-07-02T13:39:41.800Z,22.8
2014-07-02T13:39:59.550Z,22.8
2014-07-02T13:40:17.787Z,22.8
2014-07-02T13:40:35.412Z,22.8
2014-07-02T13:40:52.396Z,22.8
2014-07-02T13:41:10.632Z,22.7
2014-07-02T13:41:27.617Z,22.7
2014-07-02T13:41:44.601Z,22.7
2014-07-02T13:42:01.601Z,22.7
2014-07-02T13:42:17.963Z,22.7
2014-07-02T13:42:35.572Z,22.7
2014-07-02T13:42:53.181Z,22.7
2014-07-02T13:43:10.152Z,22.7
2014-07-02T13:43:26.511Z,22.7
2014-07-02T13:43:43.511Z,22.7
2014-07-02T13:44:01.121Z,22.7
2014-07-02T13:44:18.732Z,22.7
2014-07-02T13:44:36.967Z,22.7
2014-07-02T13:44:54.576Z,22.7
2014-07-02T13:45:12.344Z,22.7
2014-07-02T13:45:29.969Z,22.7
2014-07-02T13:45:47.578Z,22.7
2014-07-02T13:46:04.687Z,22.7
2014-07-02T13:46:22.439Z,22.7
2014-07-02T13:46:40.814Z,22.7
2014-07-02T13:46:57.174Z,22.6
2014-07-02T13:47:14.801Z,22.7
2014-07-02T13:47:32.535Z,22.6
2014-07-02T13:47:50.144Z,22.6
2014-07-02T13:48:07.754Z,22.6
2014-07-02T13:48:25.381Z,22.6
2014-07-02T13:48:43.631Z,22.6
2014-07-02T13:49:01.240Z,22.6
2014-07-02T13:49:19.616Z,22.6
2014-07-02T13:49:36.601Z,22.6
2014-07-02T13:49:54.226Z,22.6
2014-07-02T13:50:12.601Z,22.6
2014-07-02T13:50:30.243Z,22.6
2014-07-02T13:50:48.478Z,22.6
2014-07-02T13:51:06.087Z,22.6
2014-07-02T13:51:23.840Z,22.6
2014-07-02T13:51:40.340Z,22.6
2014-07-02T13:51:57.949Z,22.6
2014-07-02T13:52:14.949Z,22.6
2014-07-02T13:52:32.560Z,22.7
2014-07-02T13:52:49.544Z,22.7
2014-07-02T13:53:07.153Z,22.7
2014-07-02T13:53:25.405Z,22.6
2014-07-02T13:54:33.736Z,22.6
2014-07-02T13:54:51.970Z,22.6
2014-07-02T13:55:08.954Z,22.6
2014-07-02T13:55:25.941Z,22.6
2014-07-02T13:55:42.941Z,22.6
2014-07-02T13:56:01.300Z,22.6
2014-07-02T13:56:18.925Z,22.6
2014-07-02T13:56:36.552Z,22.6
2014-07-02T13:56:54.786Z,22.6
2014-07-02T13:57:11.771Z,22.6
2014-07-02T13:57:29.398Z,22.6
2014-07-02T13:57:46.382Z,22.6
2014-07-02T13:58:03.367Z,22.6
2014-07-02T13:58:21.132Z,22.6
2014-07-02T13:58:38.744Z,22.6
2014-07-02T13:58:56.353Z,22.7
2014-07-02T13:59:15.228Z,22.7
2014-07-02T13:59:32.214Z,22.7
2014-07-02T13:59:49.839Z,22.7
2014-07-02T14:00:09.480Z,22.7
2014-07-02T14:00:27.716Z,22.7
2014-07-02T14:00:45.341Z,22.7
2014-07-02T14:01:03.591Z,22.7
2014-07-02T14:01:21.966Z,22.7
2014-07-02T14:01:39.734Z,22.7
2014-07-02T14:01:57.968Z,22.7
2014-07-02T14:02:15.593Z,22.7
2014-07-02T14:02:33.220Z,22.7
2014-07-02T14:02:51.470Z,22.7
2014-07-02T14:03:09.720Z,22.7
2014-07-02T14:03:27.957Z,22.8
2014-07-02T14:03:46.675Z,22.8
2014-07-02T14:04:03.847Z,22.8
2014-07-02T14:04:21.472Z,22.8
2014-07-02T14:04:39.084Z,22.8
2014-07-02T14:04:56.084Z,22.8
2014-07-02T14:05:14.318Z,22.8
2014-07-02T14:05:31.929Z,22.7
2014-07-02T14:05:49.554Z,22.7
2014-07-02T14:06:07.164Z,22.7
2014-07-02T14:06:25.414Z,22.7
2014-07-02T14:06:43.791Z,22.7
2014-07-02T14:07:00.775Z,22.7
2014-07-02T14:07:17.900Z,22.7
2014-07-02T14:07:36.262Z,22.7
2014-07-02T14:07:54.512Z,22.6
2014-07-02T14:08:12.121Z,22.6
2014-07-02T14:08:29.105Z,22.6
2014-07-02T14:08:46.732Z,22.6
2014-07-02T14:09:04.342Z,22.6
2014-07-02T14:09:20.701Z,22.6
2014-07-02T14:09:37.827Z,22.6
2014-07-02T14:09:55.452Z,22.6
2014-07-02T14:10:13.202Z,22.6
2014-07-02T14:10:31.452Z,22.6
2014-07-02T14:10:49.063Z,22.6
2014-07-02T14:11:07.313Z,22.6
2014-07-02T14:11:24.923Z,22.6
2014-07-02T14:11:43.316Z,22.6
2014-07-02T14:12:01.551Z,22.6
2014-07-02T14:12:19.160Z,22.6
2014-07-02T14:12:36.145Z,22.6
2014-07-02T14:12:53.772Z,22.6
2014-07-02T14:13:10.740Z,22.6
2014-07-02T14:13:28.365Z,22.5
2014-07-02T14:13:45.991Z,22.5
2014-07-02T14:14:03.663Z,22.5
2014-07-02T14:14:20.648Z,22.5
2014-07-02T14:14:38.273Z,22.5
2014-07-02T14:14:55.885Z,22.5
2014-07-02T14:15:13.494Z,22.5
2014-07-02T14:15:30.479Z,22.5
2014-07-02T14:15:48.105Z,22.5
2014-07-02T14:16:05.855Z,22.5
2014-07-02T14:16:23.058Z,22.5
2014-07-02T14:16:41.308Z,22.5
2014-07-02T14:16:58.435Z,22.6
2014-07-02T14:17:16.685Z,22.6
2014-07-02T14:17:33.669Z,22.6
2014-07-02T14:17:51.422Z,22.6
2014-07-02T14:18:09.032Z,22.6
2014-07-02T14:18:26.641Z,22.7
2014-07-02T14:18:43.000Z,22.6
2014-07-02T14:19:00.627Z,22.6
2014-07-02T14:19:18.237Z,22.6
2014-07-02T14:19:35.987Z,22.7
2014-07-02T14:19:54.364Z,22.8
2014-07-02T14:20:11.973Z,22.8
2014-07-02T14:20:29.598Z,22.7
2014-07-02T14:20:47.224Z,22.7
2014-07-02T14:21:04.333Z,22.7
2014-07-02T14:21:21.318Z,22.7
2014-07-02T14:21:38.927Z,22.6
2014-07-02T14:21:56.539Z,22.6
2014-07-02T14:22:14.289Z,22.6
2014-07-02T14:22:31.289Z,22.6
2014-07-02T14:22:49.523Z,22.6
2014-07-02T14:23:07.275Z,22.6
2014-07-02T14:23:24.384Z,22.6
2014-07-02T14:23:42.775Z,22.5
2014-07-02T14:24:01.027Z,22.5
2014-07-02T14:24:18.199Z,22.5
2014-07-02T14:24:36.574Z,22.5
2014-07-02T14:24:53.685Z,22.4
2014-07-02T14:25:11.935Z,22.4
2014-07-02T14:25:30.185Z,22.4
2014-07-02T14:25:47.154Z,22.4
2014-07-02T14:26:04.781Z,22.4
2014-07-02T14:26:22.390Z,22.4
2014-07-02T14:26:40.000Z,22.4
2014-07-02T14:26:57.002Z,22.4
2014-07-02T14:27:14.752Z,22.4
2014-07-02T14:27:32.986Z,22.4
2014-07-02T14:27:50.595Z,22.5
2014-07-02T14:28:07.597Z,22.5
2014-07-02T14:28:25.207Z,22.5
2014-07-02T14:28:43.597Z,22.5
2014-07-02T14:29:01.833Z,22.5
2014-07-02T14:29:20.208Z,22.5
2014-07-02T14:29:38.692Z,22.5
2014-07-02T14:29:55.679Z,22.5
2014-07-02T14:30:13.304Z,22.5
2014-07-02T14:30:30.929Z,22.5
2014-07-02T14:30:49.163Z,22.5
2014-07-02T14:31:07.415Z,22.5
2014-07-02T14:31:25.024Z,22.5
2014-07-02T14:31:42.009Z,22.5
2014-07-02T14:32:00.402Z,22.5
2014-07-02T14:32:18.637Z,22.5
2014-07-02T14:32:36.887Z,22.5
2014-07-02T14:32:54.498Z,22.5
2014-07-02T14:33:11.482Z,22.5
2014-07-02T14:33:29.092Z,22.5
2014-07-02T14:33:47.482Z,22.5
2014-07-02T14:34:05.093Z,22.5
2014-07-02T14:34:22.843Z,22.5
2014-07-02T14:34:40.593Z,22.4
2014-07-02T14:34:57.579Z,22.4
2014-07-02T14:35:15.814Z,22.4
2014-07-02T14:35:33.314Z,22.4
2014-07-02T14:35:51.673Z,22.4
2014-07-02T14:36:10.050Z,22.4
2014-07-02T14:36:28.300Z,22.4
2014-07-02T14:36:45.909Z,22.4
2014-07-02T14:37:03.036Z,22.4
2014-07-02T14:37:20.646Z,22.4
2014-07-02T14:37:38.396Z,22.4
2014-07-02T14:37:55.538Z,22.4
2014-07-02T14:38:13.773Z,22.4
2014-07-02T14:38:30.757Z,22.4
2014-07-02T14:38:48.366Z,22.4
2014-07-02T14:39:05.993Z,22.4
2014-07-02T14:39:23.728Z,22.4
2014-07-02T14:39:41.337Z,22.4
2014-07-02T14:39:59.089Z,22.4
2014-07-02T14:40:17.339Z,22.5
2014-07-02T14:40:35.589Z,22.5
2014-07-02T14:40:53.841Z,22.5
2014-07-02T14:41:11.451Z,22.5
2014-07-02T14:41:29.201Z,22.5
2014-07-02T14:41:46.810Z,22.5
2014-07-02T14:42:04.436Z,22.5
2014-07-02T14:42:22.045Z,22.6
2014-07-02T14:42:39.655Z,22.5
2014-07-02T14:42:58.032Z,22.6
2014-07-02T14:43:15.016Z,22.6
2014-07-02T14:43:33.250Z,22.6
2014-07-02T14:43:50.375Z,22.6
2014-07-02T14:44:07.987Z,22.6
2014-07-02T14:44:24.987Z,22.6
2014-07-02T14:44:41.971Z,22.6
2014-07-02T14:44:59.739Z,22.6
2014-07-02T14:45:17.973Z,22.6
2014-07-02T14:45:35.583Z,22.6
2014-07-02T14:45:53.208Z,22.6
2014-07-02T14:46:10.819Z,22.6
2014-07-02T14:46:27.819Z,22.6
2014-07-02T14:46:46.069Z,22.6
2014-07-02T14:47:04.321Z,22.6
2014-07-02T14:47:22.571Z,22.7
2014-07-02T14:47:40.946Z,22.7
2014-07-02T14:47:58.573Z,22.7
2014-07-02T14:48:16.948Z,22.7
2014-07-02T14:48:35.323Z,22.7
2014-07-02T14:48:52.948Z,22.7
2014-07-02T14:49:11.200Z,22.7
2014-07-02T14:49:29.434Z,22.7
2014-07-02T14:49:47.184Z,22.7
2014-07-02T14:50:04.811Z,22.7
2014-07-02T14:50:23.186Z,22.7
2014-07-02T14:50:40.936Z,22.7
2014-07-02T14:50:59.173Z,22.7
2014-07-02T14:51:16.798Z,22.7
2014-07-02T14:51:34.532Z,22.7
2014-07-02T14:51:51.657Z,22.7
2014-07-02T14:52:09.409Z,22.7
2014-07-02T14:52:27.034Z,22.6
2014-07-02T14:52:45.268Z,22.7
2014-07-02T14:53:03.536Z,22.6
2014-07-02T14:53:21.130Z,22.6
2014-07-02T14:53:38.130Z,22.6
2014-07-02T14:53:56.505Z,22.6
2014-07-02T14:54:13.491Z,22.6
2014-07-02T14:54:29.851Z,22.6
2014-07-02T14:54:46.851Z,22.6
2014-07-02T14:55:05.212Z,22.6
2014-07-02T14:55:23.603Z,22.6
2014-07-02T14:55:41.228Z,22.6
2014-07-02T14:55:58.962Z,22.6
2014-07-02T14:56:17.214Z,22.6
2014-07-02T14:56:35.448Z,22.6
2014-07-02T14:56:53.823Z,22.6
2014-07-02T14:57:10.810Z,22.6
2014-07-02T14:57:28.419Z,22.6
2014-07-02T14:57:45.403Z,22.6
2014-07-02T14:58:03.030Z,22.6
2014-07-02T14:58:20.015Z,22.6
2014-07-02T14:58:37.140Z,22.6
2014-07-02T14:58:54.749Z,22.6
2014-07-02T14:59:11.110Z,22.6
2014-07-02T14:59:29.360Z,22.6
2014-07-02T14:59:46.953Z,22.6
2014-07-02T15:00:03.941Z,22.6
2014-07-02T15:00:21.066Z,22.5
2014-07-02T15:00:38.050Z,22.6
2014-07-02T15:00:55.800Z,22.6
2014-07-02T15:01:12.786Z,22.5
2014-07-02T15:01:30.536Z,22.5
2014-07-02T15:01:48.286Z,22.5
2014-07-02T15:02:05.912Z,22.5
2014-07-02T15:02:23.662Z,22.6
2014-07-02T15:02:41.897Z,22.5
2014-07-02T15:02:58.881Z,22.5
2014-07-02T15:03:16.508Z,22.6
2014-07-02T15:03:34.118Z,22.6
2014-07-02T15:03:52.352Z,22.5
2014-07-02T15:04:10.588Z,22.5
2014-07-02T15:04:27.604Z,22.5
2014-07-02T15:04:45.213Z,22.5
2014-07-02T15:05:02.200Z,22.6
2014-07-02T15:05:20.575Z,22.5
2014-07-02T15:05:38.200Z,22.5
2014-07-02T15:05:55.809Z,22.5
2014-07-02T15:06:13.561Z,22.5
2014-07-02T15:06:31.811Z,22.5
2014-07-02T15:06:49.420Z,22.5
2014-07-02T15:07:07.797Z,22.5
2014-07-02T15:07:25.422Z,22.5
2014-07-02T15:07:43.157Z,22.5
2014-07-02T15:08:00.782Z,22.5
2014-07-02T15:08:18.392Z,22.5
2014-07-02T15:08:36.627Z,22.5
2014-07-02T15:08:53.611Z,22.5
2014-07-02T15:09:09.973Z,22.5
2014-07-02T15:09:26.348Z,22.5
2014-07-02T15:09:44.723Z,22.5
2014-07-02T15:10:02.975Z,22.5
2014-07-02T15:10:21.210Z,22.5
2014-07-02T15:10:38.194Z,22.5
2014-07-02T15:10:56.444Z,22.5
2014-07-02T15:11:14.054Z,22.5
2014-07-02T15:11:31.679Z,22.5
2014-07-02T15:11:49.914Z,22.5
2014-07-02T15:12:07.526Z,22.5
2014-07-02T15:12:25.151Z,22.5
2014-07-02T15:12:43.526Z,22.5
2014-07-02T15:13:01.136Z,22.5
2014-07-02T15:13:18.902Z,22.5
2014-07-02T15:13:36.512Z,22.5
2014-07-02T15:13:54.121Z,22.5
2014-07-02T15:14:12.357Z,22.5
2014-07-02T15:14:29.357Z,22.5
2014-07-02T15:14:45.842Z,22.5
2014-07-02T15:15:04.076Z,22.5
2014-07-02T15:15:22.453Z,22.5
2014-07-02T15:16:01.984Z,22.5
2014-07-02T15:16:19.111Z,22.5
2014-07-02T15:16:36.236Z,22.5
2014-07-02T15:16:53.346Z,22.5
2014-07-02T15:17:11.598Z,22.5
2014-07-02T15:17:28.582Z,22.5
2014-07-02T15:17:46.191Z,22.5
2014-07-02T15:18:03.176Z,22.5
2014-07-02T15:18:21.428Z,22.5
2014-07-02T15:18:39.678Z,22.5
2014-07-02T15:18:56.662Z,22.5
2014-07-02T15:19:14.274Z,22.5
2014-07-02T15:19:31.399Z,22.5
2014-07-02T15:19:49.149Z,22.5
2014-07-02T15:20:06.760Z,22.5
2014-07-02T15:20:24.369Z,22.5
2014-07-02T15:20:41.354Z,22.5
2014-07-02T15:20:58.963Z,22.5
2014-07-02T15:21:16.590Z,22.5
2014-07-02T15:21:34.340Z,22.5
2014-07-02T15:21:51.949Z,22.5
2014-07-02T15:22:10.186Z,22.5
2014-07-02T15:22:27.170Z,22.5
2014-07-02T15:22:45.420Z,22.5
2014-07-02T15:23:02.405Z,22.5
2014-07-02T15:23:20.781Z,22.5
2014-07-02T15:23:37.765Z,22.5
2014-07-02T15:23:55.374Z,22.5
2014-07-02T15:24:12.518Z,22.5
2014-07-02T15:24:30.127Z,22.5
2014-07-02T15:24:47.112Z,22.5
2014-07-02T15:25:04.112Z,22.5
2014-07-02T15:25:22.348Z,22.5
2014-07-02T15:25:38.832Z,22.5
2014-07-02T15:25:56.442Z,22.5
2014-07-02T15:26:13.428Z,22.5
2014-07-02T15:26:31.178Z,22.5
2014-07-02T15:26:48.788Z,22.6
2014-07-02T15:27:05.913Z,22.7
2014-07-02T15:27:24.165Z,22.8
2014-07-02T15:27:41.790Z,22.9
2014-07-02T15:28:00.024Z,23
2014-07-02T15:28:17.634Z,23
2014-07-02T15:28:36.009Z,23.1
2014-07-02T15:28:53.634Z,23.2
2014-07-02T15:29:11.871Z,23.3
2014-07-02T15:29:28.855Z,23.4
2014-07-02T15:29:47.121Z,23.4
2014-07-02T15:30:05.371Z,23.4
2014-07-02T15:30:22.983Z,23.6
2014-07-02T15:30:39.358Z,23.6
2014-07-02T15:30:56.952Z,23.6
2014-07-02T15:31:15.203Z,23.6
2014-07-02T15:31:33.453Z,23.7
2014-07-02T15:31:51.687Z,23.8
2014-07-02T15:32:09.939Z,23.8
2014-07-02T15:32:27.049Z,23.9
2014-07-02T15:32:45.299Z,23.9
2014-07-02T15:33:03.533Z,23.9
2014-07-02T15:33:21.785Z,24
2014-07-02T15:33:39.519Z,24
2014-07-02T15:33:57.269Z,24
2014-07-02T15:34:14.271Z,24
2014-07-02T15:34:31.381Z,24
2014-07-02T15:34:47.740Z,24
2014-07-02T15:35:04.740Z,24.1
2014-07-02T15:35:21.726Z,24.1
2014-07-02T15:35:39.351Z,24.2
2014-07-02T15:35:56.961Z,24.2
2014-07-02T15:36:14.571Z,24.2
2014-07-02T15:36:32.962Z,24.2
2014-07-02T15:36:51.337Z,24.1
2014-07-02T15:37:07.696Z,23.9
2014-07-02T15:37:25.948Z,23.9
2014-07-02T15:37:44.183Z,23.8
2014-07-02T15:38:02.417Z,23.7
2014-07-02T15:38:19.404Z,23.6
2014-07-02T15:38:37.654Z,23.5
2014-07-02T15:38:55.889Z,23.5
2014-07-02T15:39:14.141Z,23.4
2014-07-02T15:39:32.391Z,23.3
2014-07-02T15:39:50.000Z,23.3
2014-07-02T15:40:07.000Z,23.3
2014-07-02T15:40:25.252Z,23.4
2014-07-02T15:40:42.377Z,23.5
2014-07-02T15:41:00.002Z,23.5
2014-07-02T15:41:18.238Z,23.4
2014-07-02T15:41:35.848Z,23.3
2014-07-02T15:41:54.082Z,23.3
2014-07-02T15:42:12.334Z,23.2
2014-07-02T15:42:30.584Z,23.2
2014-07-02T15:42:48.194Z,23.2
2014-07-02T15:43:05.194Z,23.2
2014-07-02T15:43:21.555Z,23.3
2014-07-02T15:43:39.805Z,23.4
2014-07-02T15:43:57.414Z,23.4
2014-07-02T15:44:14.540Z,23.5
2014-07-02T15:44:33.087Z,23.6
2014-07-02T15:44:50.697Z,23.7
2014-07-02T15:45:08.947Z,23.8
2014-07-02T15:45:27.324Z,23.9
2014-07-02T15:45:45.074Z,23.9
2014-07-02T15:46:03.324Z,23.9
2014-07-02T15:46:21.701Z,24
2014-07-02T15:46:39.310Z,24
2014-07-02T15:46:57.685Z,24
2014-07-02T15:47:15.937Z,24
2014-07-02T15:47:33.687Z,24
2014-07-02T15:47:51.296Z,24.1
2014-07-02T15:48:07.640Z,24.1
2014-07-02T15:48:25.251Z,24.1
2014-07-02T15:48:42.876Z,24.1
2014-07-02T15:49:01.111Z,23.9
2014-07-02T15:49:18.222Z,23.8
2014-07-02T15:49:35.238Z,23.7
2014-07-02T15:49:52.847Z,23.7
2014-07-02T15:50:09.972Z,23.6
2014-07-02T15:50:26.333Z,23.5
2014-07-02T15:50:42.692Z,23.5
2014-07-02T15:50:59.676Z,23.4
2014-07-02T15:51:17.928Z,23.4
2014-07-02T15:51:35.553Z,23.4
2014-07-02T15:51:53.163Z,23.4
2014-07-02T15:52:10.788Z,23.3
2014-07-02T15:52:27.774Z,23.3
2014-07-02T15:52:44.133Z,23.3
2014-07-02T15:53:02.368Z,23.3
2014-07-02T15:53:19.370Z,23.2
2014-07-02T15:53:37.135Z,23.2
2014-07-02T15:53:55.370Z,23.2
2014-07-02T15:54:12.981Z,23.2
2014-07-02T15:54:29.966Z,23.1
2014-07-02T15:54:47.731Z,23.1
2014-07-02T15:55:04.700Z,23.1
2014-07-02T15:55:21.686Z,23.1
2014-07-02T15:55:39.921Z,23
2014-07-02T15:55:58.171Z,23
2014-07-02T15:56:16.407Z,23
2014-07-02T15:56:34.016Z,23
2014-07-02T15:56:52.266Z,23
2014-07-02T15:57:09.876Z,23
2014-07-02T15:57:28.253Z,23
2014-07-02T15:57:46.503Z,23
2014-07-02T15:58:04.112Z,22.9
2014-07-02T15:58:21.864Z,22.9
2014-07-02T15:58:40.255Z,22.9
2014-07-02T15:58:57.364Z,22.9
2014-07-02T15:59:15.132Z,22.9
2014-07-02T15:59:33.366Z,22.9
2014-07-02T15:59:50.976Z,22.9
2014-07-02T16:00:09.366Z,22.9
2014-07-02T16:00:27.603Z,22.9
2014-07-02T16:00:45.837Z,22.9
2014-07-02T16:01:04.087Z,22.9
2014-07-02T16:01:21.698Z,22.8
2014-07-02T16:01:38.683Z,22.8
2014-07-02T16:01:56.433Z,22.8
2014-07-02T16:02:14.685Z,22.8
2014-07-02T16:02:33.060Z,22.8
2014-07-02T16:02:51.435Z,22.8
2014-07-02T16:03:09.060Z,22.8
2014-07-02T16:03:26.046Z,22.8
2014-07-02T16:03:43.030Z,22.8
2014-07-02T16:04:00.780Z,22.8
2014-07-02T16:04:18.392Z,22.8
2014-07-02T16:04:36.001Z,22.8
2014-07-02T16:04:53.626Z,22.8
2014-07-02T16:05:10.611Z,22.8
2014-07-02T16:05:28.222Z,22.8
2014-07-02T16:05:46.472Z,22.8
2014-07-02T16:06:04.847Z,22.9
2014-07-02T16:06:21.208Z,22.8
2014-07-02T16:06:37.568Z,22.9
2014-07-02T16:06:54.552Z,22.9
2014-07-02T16:07:12.161Z,22.9
2014-07-02T16:07:29.929Z,22.9
2014-07-02T16:07:48.163Z,22.9
2014-07-02T16:08:05.148Z,22.9
2014-07-02T16:08:53.836Z,23.1
2014-07-02T16:09:12.086Z,23.2
2014-07-02T16:09:29.213Z,23.4
2014-07-02T16:09:46.823Z,23.5
2014-07-02T16:10:05.198Z,23.6
2014-07-02T16:10:23.434Z,23.6
2014-07-02T16:10:41.684Z,23.7
2014-07-02T16:11:00.059Z,23.8
2014-07-02T16:11:16.420Z,23.8
2014-07-02T16:11:32.780Z,23.9
2014-07-02T16:11:49.764Z,23.9
2014-07-02T16:12:07.389Z,23.8
2014-07-02T16:12:25.001Z,23.7
2014-07-02T16:12:43.251Z,23.7
2014-07-02T16:13:00.860Z,23.6
2014-07-02T16:13:19.112Z,23.7
2014-07-02T16:13:36.721Z,23.7
2014-07-02T16:13:54.956Z,23.6
2014-07-02T16:14:13.206Z,23.5
2014-07-02T16:14:31.489Z,23.4
2014-07-02T16:14:49.848Z,23.4
2014-07-02T16:15:07.473Z,23.3
2014-07-02T16:15:24.460Z,23.3
2014-07-02T16:15:42.085Z,23.3
2014-07-02T16:15:59.835Z,23.3
2014-07-02T16:16:17.477Z,23.3
2014-07-02T16:16:35.087Z,23.3
2014-07-02T16:16:52.696Z,23.2
2014-07-02T16:17:10.321Z,23.2
2014-07-02T16:17:28.556Z,23.2
2014-07-02T16:17:46.166Z,23.2
2014-07-02T18:41:28.853Z,22.6
2014-07-02T18:41:46.433Z,22.6
2014-07-02T18:42:04.027Z,22.6
2014-07-02T18:42:22.230Z,22.6
2014-07-02T18:42:39.824Z,22.6
2014-07-02T18:42:56.919Z,22.6
2014-07-02T18:43:13.888Z,22.6
2014-07-02T18:43:31.466Z,22.6
2014-07-02T18:43:48.437Z,22.6
2014-07-02T18:44:06.015Z,22.6
2014-07-02T18:44:23.609Z,22.6
2014-07-02T18:44:40.578Z,22.6
2014-07-02T18:44:58.173Z,22.6
2014-07-02T18:45:15.783Z,22.6
2014-07-02T18:45:33.345Z,22.6
2014-07-02T18:45:51.582Z,22.6
2014-07-02T18:46:09.800Z,22.6
2014-07-02T18:46:27.379Z,22.6
2014-07-02T18:46:44.972Z,22.6
2014-07-02T18:47:02.552Z,22.6
2014-07-02T18:47:20.146Z,22.6
2014-07-02T18:47:37.756Z,22.6
2014-07-02T18:47:55.350Z,22.6
2014-07-02T18:48:12.928Z,22.6
2014-07-02T18:48:30.522Z,22.6
2014-07-02T18:48:47.493Z,22.6
2014-07-02T18:49:04.446Z,22.6
2014-07-02T18:49:20.915Z,22.6
2014-07-02T18:49:38.509Z,22.6
2014-07-02T18:49:55.605Z,22.6
2014-07-02T18:50:12.558Z,22.6
2014-07-02T18:50:29.652Z,22.6
2014-07-02T18:50:47.247Z,22.6
2014-07-02T18:51:05.591Z,22.6
2014-07-02T18:51:23.184Z,22.6
2014-07-02T18:51:40.763Z,22.6
2014-07-02T18:51:58.359Z,22.6
2014-07-02T18:52:15.328Z,22.6
2014-07-02T18:52:32.281Z,22.6
2014-07-02T18:52:50.501Z,22.6
2014-07-02T18:53:08.095Z,22.6
2014-07-02T18:53:26.313Z,22.6
2014-07-02T18:53:44.532Z,22.6
2014-07-02T18:54:02.754Z,22.6
2014-07-02T18:54:20.363Z,22.6
2014-07-02T18:54:38.582Z,22.6
2014-07-02T18:54:56.802Z,22.6
2014-07-02T18:55:13.755Z,22.6
2014-07-02T18:55:31.349Z,22.6
2014-07-02T18:55:47.817Z,22.5
2014-07-02T18:56:06.038Z,22.6
2014-07-02T18:56:23.632Z,22.6
2014-07-02T18:56:40.601Z,22.6
2014-07-02T18:56:58.821Z,22.6
2014-07-02T18:57:16.415Z,22.6
2014-07-02T18:57:34.009Z,22.6
2014-07-02T18:57:51.605Z,22.6
2014-07-02T18:58:07.933Z,22.6
2014-07-02T18:58:25.527Z,22.6
2014-07-02T18:58:41.870Z,22.6
2014-07-02T18:58:59.466Z,22.6
2014-07-02T18:59:15.169Z,22.6
2014-07-02T18:59:32.763Z,22.6
2014-07-02T18:59:49.093Z,22.5
2014-07-02T19:00:07.312Z,22.5
2014-07-02T19:00:23.656Z,22.5
2014-07-02T19:00:41.374Z,22.5
2014-07-02T19:00:59.594Z,22.5
2014-07-02T19:01:17.828Z,22.5
2014-07-02T19:01:35.407Z,22.5
2014-07-02T19:01:52.377Z,22.5
2014-07-02T19:02:09.971Z,22.5
2014-07-02T19:02:28.190Z,22.5
2014-07-02T19:02:45.784Z,22.5
2014-07-02T19:03:03.380Z,22.5
2014-07-02T19:03:20.974Z,22.5
2014-07-02T19:03:39.193Z,22.5
2014-07-02T19:03:57.429Z,22.5
2014-07-02T19:04:15.648Z,22.5
2014-07-02T19:04:33.867Z,22.5
2014-07-02T19:04:50.822Z,22.5
2014-07-02T19:05:09.041Z,22.5
2014-07-02T19:05:26.650Z,22.5
2014-07-02T19:05:43.603Z,22.5
2014-07-02T19:06:00.588Z,22.5
2014-07-02T19:06:18.182Z,22.5
2014-07-02T19:06:36.401Z,22.5
2014-07-02T19:06:54.138Z,22.5
2014-07-02T19:07:11.748Z,22.5
2014-07-02T19:07:30.091Z,22.5
2014-07-02T19:07:47.060Z,22.5
2014-07-02T19:08:03.390Z,22.5
2014-07-02T19:08:20.984Z,22.5
2014-07-02T19:08:39.203Z,22.5
2014-07-02T19:08:56.188Z,22.5
2014-07-02T19:09:14.548Z,22.5
2014-07-02T19:09:31.641Z,22.5
2014-07-02T19:09:49.235Z,22.5
2014-07-02T19:10:06.206Z,22.5
2014-07-02T19:10:24.565Z,22.4
2014-07-02T19:10:42.784Z,22.4
2014-07-02T19:10:59.879Z,22.4
2014-07-02T19:11:17.457Z,22.4
2014-07-02T19:11:35.066Z,22.4
2014-07-02T19:11:52.021Z,22.4
2014-07-02T19:13:07.618Z,22.4
2014-07-02T19:13:25.196Z,22.4
2014-07-02T19:13:42.806Z,22.4
2014-07-02T19:14:00.386Z,22.4
2014-07-02T19:14:17.979Z,22.4
2014-07-02T19:14:36.198Z,22.4
2014-07-02T19:14:53.778Z,22.4
2014-07-02T19:15:12.013Z,22.4
2014-07-02T19:15:30.231Z,22.4
2014-07-02T19:15:47.810Z,22.4
2014-07-02T19:16:05.405Z,22.4
2014-07-02T19:16:23.765Z,22.4
2014-07-02T19:16:41.358Z,22.4
2014-07-02T19:16:59.578Z,22.4
2014-07-02T19:17:17.172Z,22.4
2014-07-02T19:17:34.750Z,22.4
2014-07-02T19:17:52.471Z,22.4
2014-07-02T19:18:10.065Z,22.4
2014-07-02T19:18:27.658Z,22.4
2014-07-02T19:18:45.253Z,22.4
2014-07-02T19:19:02.833Z,22.3
2014-07-02T19:19:19.177Z,22.3
2014-07-02T19:19:36.271Z,22.4
2014-07-02T19:19:52.726Z,22.4
2014-07-02T19:20:09.710Z,22.4
2014-07-02T19:20:27.288Z,22.4
2014-07-02T19:20:43.616Z,22.3
2014-07-02T19:21:01.212Z,22.4
2014-07-02T19:21:18.181Z,22.4
2014-07-02T19:21:36.384Z,22.4
2014-07-02T19:21:53.980Z,22.3
2014-07-02T19:22:12.324Z,22.3
2014-07-02T19:22:29.917Z,22.3
2014-07-02T19:22:48.136Z,22.3
2014-07-02T19:23:05.732Z,22.4
2014-07-02T19:23:23.326Z,22.4
2014-07-02T19:23:40.904Z,22.3
2014-07-02T19:23:57.999Z,22.3
2014-07-02T19:24:15.796Z,22.3
2014-07-02T19:24:33.499Z,22.3
2014-07-02T19:24:51.093Z,22.3
2014-07-02T19:25:11.548Z,22.3
2014-07-02T19:25:29.142Z,22.3
2014-07-02T19:25:47.486Z,22.3
2014-07-02T19:26:05.207Z,22.3
2014-07-02T19:26:22.800Z,22.3
2014-07-02T19:27:11.130Z,22.3
2014-07-02T19:27:29.349Z,22.3
2014-07-02T19:27:46.927Z,22.3
2014-07-02T19:28:04.523Z,22.3
2014-07-02T19:28:22.242Z,22.3
2014-07-02T19:28:39.820Z,22.3
2014-07-02T19:28:56.165Z,22.3
